KMBS/MBS METAR and TAF weather

Enter ICAO airport designator
Station Type Date Time Source
KMBS METAR 2019/12/07 17:20 UTC NOAA

KMBS 071720Z 21010KT 10SM BKN028 M01/M07 A3039 RMK AO2 T10061067


Station Type Date Time Source
KMBS Decoded METAR 2019/12/07 17:20 UTC NOAA

MBS INTERNATIONAL AIRPORT, MI, United States (KMBS) 43-32N 084-05W 202M
Dec 07, 2019 - 12:20 PM EST / 2019.12.07 1720 UTC
Wind: from the SSW (210 degrees) at 12 MPH (10 KT):0
Visibility: 10 mile(s):0
Sky conditions: mostly cloudy
Temperature: 30.9 F (-0.6 C)
Windchill: 21 F (-6 C):1
Dew Point: 19.9 F (-6.7 C)
Relative Humidity: 63%
Pressure (altimeter): 30.39 in. Hg (1029 hPa)
ob: KMBS 071720Z 21010KT 10SM BKN028 M01/M07 A3039 RMK AO2 T10061067
cycle: 17

Station Type Date Time Source
KMBS TAF 2019/12/07 18:22 UTC NOAA

TAF KMBS 071720Z 0718/0818 20008KT P6SM OVC070
FM080200 18013KT P6SM OVC150
FM081500 22015G25KT P6SM OVC015

Example: see airport list